Kansas City, Missouri
Traffic Map
Current Weather Conditions
Kansas City, Missouri
Clear
Clear
90°
Feels Like: 93°
Wind Chill: 90° Ceiling: Unl
Heat Index: 93° Visibility: 10mi
Dew Point: 67° Wind: 17mph
Humidity: 46% Direction: 180° (S)
Pressure: 29.92in Gusts: 23mph
Raw Report DataKMKC 022154Z 18015G20KT 10SM CLR 32/19 A2992 RMK AO2 SLP121 T03220194 $
Traffic Incident Summary
Active as of:
Severity:
Category:
InformationThere was an issue retrieving the traffic information for this location. Please try a different location or try again shortly.
Advertisements
Track Severe Weather on mobile